Aérodrome :
LOGIN :

S'inscrire | Disclaimer

   EN    FR    IT 

 










Légende :    VFR   VFR Marginal   IFR   IFR Intensif   IFR Très Intensif
Visi : 
Plafond : 
>= 8 km
>= 3000ft
5 à 8 km
1000 à 3000 ft
1500m à 5 km
500 à 1000 ft
800 à 1500m
200 à 500 ft
< 800m
< 200 ft
Symboles :   Orages  Brouillard  Fortes neiges  Fortes précipitations  Vent > 20 kt
SIGMETs :   Divers  Orages  Givrage  Turbulence  Onde Orograph.  Cendres Volcan.






- Altitude de l'aérodrome : 405 ft
- Code IATA : ODH


EGVO - RAF Odiham

DERNIER METAR :
  • 271150Z 34003KT 9999 SCT044 22/12 Q1035 RMK BLU

METARs EXPIRÉS :
  • 271050Z AUTO 31005KT 9999 NCD 22/11 Q1035
  • 270950Z AUTO 10002KT 9999 FEW049/// 21/10 Q1036

TAF TAF EGVO
Valide du 27 à 12h jusqu'au 28 à 00h UTC


271047Z 2712/2724 VRB04KT CAVOK



MET'MAP, la Météo Aéronautique d'un coup d'oeil ! - Copyright ORBIFLY Décembre 2007 - Disclaimer

ORBIFLY MET'MAP TEAM :

Programmation & Développement : Alexandra Zaïnal
Sur une idée originale de : Baudouin d'Aumeries
Assistance à la programmation : Marc-Olivier Méhu
Soutien technique & logistique : Manuel Goepfert

Contact : metmap@orbifly.com




SOURCES & CREDITS :

   NOAA